sensor_id;sensor_type;location;lat;lon;timestamp;P1;durP1;ratioP1;P2;durP2;ratioP2
4290;SDS011;2159;50.906;7.152;2024-03-08T00:00:08;23.13;;;12.50;;
4290;SDS011;2159;50.906;7.152;2024-03-08T00:02:38;20.10;;;13.10;;
4290;SDS011;2159;50.906;7.152;2024-03-08T00:05:06;20.27;;;12.83;;
4290;SDS011;2159;50.906;7.152;2024-03-08T00:07:35;23.53;;;13.03;;
4290;SDS011;2159;50.906;7.152;2024-03-08T00:10:02;20.80;;;13.17;;
4290;SDS011;2159;50.906;7.152;2024-03-08T00:12:30;21.17;;;12.70;;
4290;SDS011;2159;50.906;7.152;2024-03-08T00:14:57;19.40;;;12.60;;
4290;SDS011;2159;50.906;7.152;2024-03-08T00:17:26;19.97;;;13.00;;
4290;SDS011;2159;50.906;7.152;2024-03-08T00:19:53;18.00;;;11.80;;
4290;SDS011;2159;50.906;7.152;2024-03-08T00:22:22;21.60;;;12.90;;
4290;SDS011;2159;50.906;7.152;2024-03-08T00:24:49;21.20;;;12.90;;
4290;SDS011;2159;50.906;7.152;2024-03-08T00:27:17;21.47;;;13.00;;
4290;SDS011;2159;50.906;7.152;2024-03-08T00:29:47;19.60;;;12.60;;
4290;SDS011;2159;50.906;7.152;2024-03-08T00:32:15;18.93;;;12.43;;
4290;SDS011;2159;50.906;7.152;2024-03-08T00:34:44;19.77;;;13.03;;
4290;SDS011;2159;50.906;7.152;2024-03-08T00:37:12;21.47;;;13.70;;
4290;SDS011;2159;50.906;7.152;2024-03-08T00:39:40;19.63;;;12.50;;
4290;SDS011;2159;50.906;7.152;2024-03-08T00:42:08;22.57;;;13.67;;
4290;SDS011;2159;50.906;7.152;2024-03-08T00:44:35;20.87;;;13.83;;
4290;SDS011;2159;50.906;7.152;2024-03-08T00:47:04;21.23;;;13.67;;
4290;SDS011;2159;50.906;7.152;2024-03-08T00:49:32;22.47;;;12.80;;
4290;SDS011;2159;50.906;7.152;2024-03-08T00:52:00;26.63;;;13.17;;
4290;SDS011;2159;50.906;7.152;2024-03-08T00:54:28;22.83;;;13.90;;
4290;SDS011;2159;50.906;7.152;2024-03-08T00:56:56;20.30;;;12.70;;
4290;SDS011;2159;50.906;7.152;2024-03-08T00:59:24;23.23;;;13.73;;
4290;SDS011;2159;50.906;7.152;2024-03-08T01:01:51;21.00;;;13.37;;
4290;SDS011;2159;50.906;7.152;2024-03-08T01:04:19;23.73;;;13.70;;
4290;SDS011;2159;50.906;7.152;2024-03-08T01:06:47;20.67;;;12.80;;
4290;SDS011;2159;50.906;7.152;2024-03-08T01:09:16;21.50;;;12.97;;
4290;SDS011;2159;50.906;7.152;2024-03-08T01:11:43;21.97;;;12.70;;
4290;SDS011;2159;50.906;7.152;2024-03-08T01:14:11;20.43;;;13.30;;
4290;SDS011;2159;50.906;7.152;2024-03-08T01:16:39;24.87;;;13.87;;
4290;SDS011;2159;50.906;7.152;2024-03-08T01:19:07;22.27;;;13.17;;
4290;SDS011;2159;50.906;7.152;2024-03-08T01:21:35;28.37;;;12.93;;
4290;SDS011;2159;50.906;7.152;2024-03-08T01:24:03;25.03;;;14.10;;
4290;SDS011;2159;50.906;7.152;2024-03-08T01:26:31;20.50;;;13.37;;
4290;SDS011;2159;50.906;7.152;2024-03-08T01:29:00;20.73;;;13.20;;
4290;SDS011;2159;50.906;7.152;2024-03-08T01:31:29;21.47;;;13.80;;
4290;SDS011;2159;50.906;7.152;2024-03-08T01:33:57;25.73;;;13.27;;
4290;SDS011;2159;50.906;7.152;2024-03-08T01:36:24;21.03;;;12.83;;
4290;SDS011;2159;50.906;7.152;2024-03-08T01:38:52;22.00;;;13.80;;
4290;SDS011;2159;50.906;7.152;2024-03-08T01:41:20;22.20;;;13.10;;
4290;SDS011;2159;50.906;7.152;2024-03-08T01:43:48;22.87;;;13.80;;
4290;SDS011;2159;50.906;7.152;2024-03-08T01:46:17;22.53;;;13.37;;
4290;SDS011;2159;50.906;7.152;2024-03-08T01:48:45;20.33;;;13.10;;
4290;SDS011;2159;50.906;7.152;2024-03-08T01:51:13;21.60;;;13.83;;
4290;SDS011;2159;50.906;7.152;2024-03-08T01:53:41;23.60;;;14.23;;
4290;SDS011;2159;50.906;7.152;2024-03-08T01:56:12;23.63;;;13.70;;
4290;SDS011;2159;50.906;7.152;2024-03-08T01:58:40;21.67;;;14.00;;
4290;SDS011;2159;50.906;7.152;2024-03-08T02:01:11;22.87;;;13.50;;
4290;SDS011;2159;50.906;7.152;2024-03-08T02:03:40;23.17;;;13.03;;
4290;SDS011;2159;50.906;7.152;2024-03-08T02:06:11;19.03;;;12.63;;
4290;SDS011;2159;50.906;7.152;2024-03-08T02:08:40;22.47;;;13.53;;
4290;SDS011;2159;50.906;7.152;2024-03-08T02:11:09;22.67;;;13.83;;
4290;SDS011;2159;50.906;7.152;2024-03-08T02:13:36;21.73;;;13.27;;
4290;SDS011;2159;50.906;7.152;2024-03-08T02:16:04;21.27;;;13.70;;
4290;SDS011;2159;50.906;7.152;2024-03-08T02:18:36;22.80;;;14.20;;
4290;SDS011;2159;50.906;7.152;2024-03-08T02:21:07;19.40;;;12.40;;
4290;SDS011;2159;50.906;7.152;2024-03-08T02:23:35;22.37;;;13.17;;
4290;SDS011;2159;50.906;7.152;2024-03-08T02:26:03;22.40;;;13.23;;
4290;SDS011;2159;50.906;7.152;2024-03-08T02:28:31;20.80;;;13.17;;
4290;SDS011;2159;50.906;7.152;2024-03-08T02:31:00;23.70;;;13.23;;
4290;SDS011;2159;50.906;7.152;2024-03-08T02:33:28;20.53;;;13.27;;
4290;SDS011;2159;50.906;7.152;2024-03-08T02:35:56;21.27;;;13.10;;
4290;SDS011;2159;50.906;7.152;2024-03-08T02:38:25;20.80;;;13.30;;
4290;SDS011;2159;50.906;7.152;2024-03-08T02:40:53;21.63;;;13.47;;
4290;SDS011;2159;50.906;7.152;2024-03-08T02:43:21;22.23;;;12.80;;
4290;SDS011;2159;50.906;7.152;2024-03-08T02:45:50;22.60;;;13.20;;
4290;SDS011;2159;50.906;7.152;2024-03-08T02:48:19;19.77;;;13.40;;
4290;SDS011;2159;50.906;7.152;2024-03-08T02:50:48;22.70;;;13.30;;
4290;SDS011;2159;50.906;7.152;2024-03-08T02:53:17;21.90;;;12.80;;
4290;SDS011;2159;50.906;7.152;2024-03-08T02:55:47;21.63;;;13.43;;
4290;SDS011;2159;50.906;7.152;2024-03-08T02:58:14;23.20;;;13.80;;
4290;SDS011;2159;50.906;7.152;2024-03-08T03:00:42;21.23;;;13.70;;
4290;SDS011;2159;50.906;7.152;2024-03-08T03:03:10;24.00;;;13.33;;
4290;SDS011;2159;50.906;7.152;2024-03-08T03:05:38;20.93;;;13.33;;
4290;SDS011;2159;50.906;7.152;2024-03-08T03:08:11;21.33;;;13.67;;
4290;SDS011;2159;50.906;7.152;2024-03-08T03:10:39;22.97;;;13.33;;
4290;SDS011;2159;50.906;7.152;2024-03-08T03:13:08;20.10;;;13.33;;
4290;SDS011;2159;50.906;7.152;2024-03-08T03:15:36;20.90;;;13.13;;
4290;SDS011;2159;50.906;7.152;2024-03-08T03:18:04;20.27;;;12.67;;
4290;SDS011;2159;50.906;7.152;2024-03-08T03:20:34;21.27;;;13.13;;
4290;SDS011;2159;50.906;7.152;2024-03-08T03:23:07;20.77;;;13.20;;
4290;SDS011;2159;50.906;7.152;2024-03-08T03:25:35;22.00;;;12.80;;
4290;SDS011;2159;50.906;7.152;2024-03-08T03:28:05;23.57;;;13.80;;
4290;SDS011;2159;50.906;7.152;2024-03-08T03:30:35;20.83;;;13.17;;
4290;SDS011;2159;50.906;7.152;2024-03-08T03:33:03;22.60;;;13.20;;
4290;SDS011;2159;50.906;7.152;2024-03-08T03:35:34;22.50;;;14.17;;
4290;SDS011;2159;50.906;7.152;2024-03-08T03:38:02;19.40;;;12.70;;
4290;SDS011;2159;50.906;7.152;2024-03-08T03:40:33;20.17;;;13.13;;
4290;SDS011;2159;50.906;7.152;2024-03-08T03:43:00;22.73;;;13.70;;
4290;SDS011;2159;50.906;7.152;2024-03-08T03:45:29;21.60;;;13.30;;
4290;SDS011;2159;50.906;7.152;2024-03-08T03:48:01;22.10;;;13.17;;
4290;SDS011;2159;50.906;7.152;2024-03-08T03:50:29;20.60;;;13.43;;
4290;SDS011;2159;50.906;7.152;2024-03-08T03:52:57;20.20;;;13.17;;
4290;SDS011;2159;50.906;7.152;2024-03-08T03:55:24;22.67;;;13.97;;
4290;SDS011;2159;50.906;7.152;2024-03-08T03:57:53;24.43;;;13.37;;
4290;SDS011;2159;50.906;7.152;2024-03-08T04:00:20;21.70;;;13.40;;
4290;SDS011;2159;50.906;7.152;2024-03-08T04:02:48;21.17;;;12.90;;
4290;SDS011;2159;50.906;7.152;2024-03-08T04:05:18;22.00;;;13.20;;
4290;SDS011;2159;50.906;7.152;2024-03-08T04:07:46;22.27;;;13.40;;
4290;SDS011;2159;50.906;7.152;2024-03-08T04:10:14;24.50;;;13.40;;
4290;SDS011;2159;50.906;7.152;2024-03-08T04:12:41;23.17;;;13.83;;
4290;SDS011;2159;50.906;7.152;2024-03-08T04:15:09;24.23;;;14.30;;
4290;SDS011;2159;50.906;7.152;2024-03-08T04:17:37;21.97;;;12.80;;
4290;SDS011;2159;50.906;7.152;2024-03-08T04:20:05;22.30;;;12.90;;
4290;SDS011;2159;50.906;7.152;2024-03-08T04:22:37;22.70;;;13.47;;
4290;SDS011;2159;50.906;7.152;2024-03-08T04:25:06;22.13;;;13.40;;
4290;SDS011;2159;50.906;7.152;2024-03-08T04:27:33;26.13;;;13.10;;
4290;SDS011;2159;50.906;7.152;2024-03-08T04:30:01;23.27;;;14.67;;
4290;SDS011;2159;50.906;7.152;2024-03-08T04:32:29;22.40;;;13.63;;
4290;SDS011;2159;50.906;7.152;2024-03-08T04:34:59;22.00;;;13.57;;
4290;SDS011;2159;50.906;7.152;2024-03-08T04:37:27;22.80;;;13.10;;
4290;SDS011;2159;50.906;7.152;2024-03-08T04:39:57;23.70;;;13.93;;
4290;SDS011;2159;50.906;7.152;2024-03-08T04:42:25;23.73;;;14.07;;
4290;SDS011;2159;50.906;7.152;2024-03-08T04:44:53;21.80;;;13.10;;
4290;SDS011;2159;50.906;7.152;2024-03-08T04:47:21;22.00;;;13.57;;
4290;SDS011;2159;50.906;7.152;2024-03-08T04:49:48;25.33;;;15.00;;
4290;SDS011;2159;50.906;7.152;2024-03-08T04:52:16;31.73;;;15.00;;
4290;SDS011;2159;50.906;7.152;2024-03-08T04:54:44;24.50;;;13.83;;
4290;SDS011;2159;50.906;7.152;2024-03-08T04:57:13;25.63;;;14.33;;
4290;SDS011;2159;50.906;7.152;2024-03-08T04:59:41;21.30;;;13.30;;
4290;SDS011;2159;50.906;7.152;2024-03-08T05:02:09;21.43;;;13.10;;
4290;SDS011;2159;50.906;7.152;2024-03-08T05:04:37;24.73;;;13.90;;
4290;SDS011;2159;50.906;7.152;2024-03-08T05:07:05;27.03;;;13.70;;
4290;SDS011;2159;50.906;7.152;2024-03-08T05:09:32;23.93;;;13.90;;
4290;SDS011;2159;50.906;7.152;2024-03-08T05:12:02;22.67;;;13.30;;
4290;SDS011;2159;50.906;7.152;2024-03-08T05:14:31;26.03;;;14.20;;
4290;SDS011;2159;50.906;7.152;2024-03-08T05:16:58;24.80;;;14.23;;
4290;SDS011;2159;50.906;7.152;2024-03-08T05:19:27;24.00;;;14.07;;
4290;SDS011;2159;50.906;7.152;2024-03-08T05:22:00;22.73;;;13.60;;
4290;SDS011;2159;50.906;7.152;2024-03-08T05:24:28;23.37;;;14.33;;
4290;SDS011;2159;50.906;7.152;2024-03-08T05:26:56;25.93;;;14.40;;
4290;SDS011;2159;50.906;7.152;2024-03-08T05:29:25;24.93;;;14.60;;
4290;SDS011;2159;50.906;7.152;2024-03-08T05:31:54;23.37;;;14.10;;
4290;SDS011;2159;50.906;7.152;2024-03-08T05:34:21;23.20;;;13.90;;
4290;SDS011;2159;50.906;7.152;2024-03-08T05:36:49;26.10;;;14.47;;
4290;SDS011;2159;50.906;7.152;2024-03-08T05:39:17;23.60;;;13.87;;
4290;SDS011;2159;50.906;7.152;2024-03-08T05:41:46;25.67;;;14.37;;
4290;SDS011;2159;50.906;7.152;2024-03-08T05:44:13;21.40;;;13.53;;
4290;SDS011;2159;50.906;7.152;2024-03-08T05:46:44;24.93;;;14.60;;
4290;SDS011;2159;50.906;7.152;2024-03-08T05:49:14;22.40;;;13.93;;
4290;SDS011;2159;50.906;7.152;2024-03-08T05:51:42;27.00;;;14.63;;
4290;SDS011;2159;50.906;7.152;2024-03-08T05:54:10;26.10;;;14.63;;
4290;SDS011;2159;50.906;7.152;2024-03-08T05:56:42;21.97;;;14.10;;
4290;SDS011;2159;50.906;7.152;2024-03-08T05:59:12;24.00;;;14.50;;
4290;SDS011;2159;50.906;7.152;2024-03-08T06:01:40;28.20;;;15.10;;
4290;SDS011;2159;50.906;7.152;2024-03-08T06:04:09;24.43;;;14.83;;
4290;SDS011;2159;50.906;7.152;2024-03-08T06:06:39;25.77;;;14.20;;
4290;SDS011;2159;50.906;7.152;2024-03-08T06:09:07;23.90;;;14.50;;
4290;SDS011;2159;50.906;7.152;2024-03-08T06:11:39;24.90;;;14.37;;
4290;SDS011;2159;50.906;7.152;2024-03-08T06:14:07;25.63;;;14.40;;
4290;SDS011;2159;50.906;7.152;2024-03-08T06:16:35;23.20;;;13.60;;
4290;SDS011;2159;50.906;7.152;2024-03-08T06:19:02;25.37;;;14.70;;
4290;SDS011;2159;50.906;7.152;2024-03-08T06:21:30;24.20;;;14.50;;
4290;SDS011;2159;50.906;7.152;2024-03-08T06:24:00;23.70;;;14.00;;
4290;SDS011;2159;50.906;7.152;2024-03-08T06:26:27;26.33;;;14.43;;
4290;SDS011;2159;50.906;7.152;2024-03-08T06:28:56;23.63;;;13.63;;
4290;SDS011;2159;50.906;7.152;2024-03-08T06:31:25;25.87;;;14.90;;
4290;SDS011;2159;50.906;7.152;2024-03-08T06:33:52;25.93;;;15.07;;
4290;SDS011;2159;50.906;7.152;2024-03-08T06:36:22;27.17;;;14.13;;
4290;SDS011;2159;50.906;7.152;2024-03-08T06:38:49;27.10;;;15.80;;
4290;SDS011;2159;50.906;7.152;2024-03-08T06:41:19;25.20;;;14.80;;
4290;SDS011;2159;50.906;7.152;2024-03-08T06:43:46;26.70;;;15.37;;
4290;SDS011;2159;50.906;7.152;2024-03-08T06:46:15;22.07;;;13.43;;
4290;SDS011;2159;50.906;7.152;2024-03-08T06:48:42;26.93;;;14.20;;
4290;SDS011;2159;50.906;7.152;2024-03-08T06:51:11;25.97;;;14.53;;
4290;SDS011;2159;50.906;7.152;2024-03-08T06:53:39;25.17;;;14.40;;
4290;SDS011;2159;50.906;7.152;2024-03-08T06:56:06;27.07;;;15.27;;
4290;SDS011;2159;50.906;7.152;2024-03-08T06:58:36;25.53;;;14.30;;
4290;SDS011;2159;50.906;7.152;2024-03-08T07:01:03;28.20;;;14.80;;
4290;SDS011;2159;50.906;7.152;2024-03-08T07:03:34;24.70;;;14.57;;
4290;SDS011;2159;50.906;7.152;2024-03-08T07:06:02;23.57;;;13.40;;
4290;SDS011;2159;50.906;7.152;2024-03-08T07:08:33;21.63;;;13.23;;
4290;SDS011;2159;50.906;7.152;2024-03-08T07:11:01;24.87;;;14.87;;
4290;SDS011;2159;50.906;7.152;2024-03-08T07:13:30;23.20;;;13.77;;
4290;SDS011;2159;50.906;7.152;2024-03-08T07:15:59;22.87;;;14.40;;
4290;SDS011;2159;50.906;7.152;2024-03-08T07:18:27;24.43;;;13.80;;
4290;SDS011;2159;50.906;7.152;2024-03-08T07:20:57;26.13;;;14.60;;
4290;SDS011;2159;50.906;7.152;2024-03-08T07:23:25;24.23;;;13.77;;
4290;SDS011;2159;50.906;7.152;2024-03-08T07:26:06;24.43;;;14.27;;
4290;SDS011;2159;50.906;7.152;2024-03-08T07:28:33;23.90;;;13.50;;
4290;SDS011;2159;50.906;7.152;2024-03-08T07:31:02;22.80;;;13.17;;
4290;SDS011;2159;50.906;7.152;2024-03-08T07:33:43;21.10;;;13.53;;
4290;SDS011;2159;50.906;7.152;2024-03-08T07:36:11;26.10;;;14.20;;
4290;SDS011;2159;50.906;7.152;2024-03-08T07:38:41;22.10;;;13.53;;
4290;SDS011;2159;50.906;7.152;2024-03-08T07:41:08;23.63;;;13.40;;
4290;SDS011;2159;50.906;7.152;2024-03-08T07:43:38;23.13;;;13.37;;
4290;SDS011;2159;50.906;7.152;2024-03-08T07:46:07;23.20;;;13.67;;
4290;SDS011;2159;50.906;7.152;2024-03-08T07:48:36;22.73;;;14.30;;
4290;SDS011;2159;50.906;7.152;2024-03-08T07:51:04;24.57;;;13.03;;
4290;SDS011;2159;50.906;7.152;2024-03-08T07:53:31;26.03;;;13.97;;
4290;SDS011;2159;50.906;7.152;2024-03-08T07:55:59;23.50;;;13.70;;
4290;SDS011;2159;50.906;7.152;2024-03-08T07:58:27;22.33;;;14.40;;
4290;SDS011;2159;50.906;7.152;2024-03-08T08:00:55;27.50;;;14.50;;
4290;SDS011;2159;50.906;7.152;2024-03-08T08:03:24;24.30;;;14.43;;
4290;SDS011;2159;50.906;7.152;2024-03-08T08:05:51;22.87;;;12.83;;
4290;SDS011;2159;50.906;7.152;2024-03-08T08:08:19;23.47;;;12.53;;
4290;SDS011;2159;50.906;7.152;2024-03-08T08:10:47;23.60;;;14.20;;
4290;SDS011;2159;50.906;7.152;2024-03-08T08:13:16;22.83;;;13.20;;
4290;SDS011;2159;50.906;7.152;2024-03-08T08:15:44;23.43;;;13.30;;
4290;SDS011;2159;50.906;7.152;2024-03-08T08:18:12;24.30;;;13.20;;
4290;SDS011;2159;50.906;7.152;2024-03-08T08:20:41;20.27;;;13.10;;
4290;SDS011;2159;50.906;7.152;2024-03-08T08:23:09;25.00;;;14.20;;
4290;SDS011;2159;50.906;7.152;2024-03-08T08:25:38;23.57;;;13.23;;
4290;SDS011;2159;50.906;7.152;2024-03-08T08:28:06;22.70;;;12.83;;
4290;SDS011;2159;50.906;7.152;2024-03-08T08:30:33;26.03;;;13.13;;
4290;SDS011;2159;50.906;7.152;2024-03-08T08:33:00;21.47;;;12.77;;
4290;SDS011;2159;50.906;7.152;2024-03-08T08:35:28;21.60;;;12.50;;
4290;SDS011;2159;50.906;7.152;2024-03-08T08:37:57;20.63;;;11.57;;
4290;SDS011;2159;50.906;7.152;2024-03-08T08:40:25;21.57;;;13.23;;
4290;SDS011;2159;50.906;7.152;2024-03-08T08:42:55;22.10;;;13.53;;
4290;SDS011;2159;50.906;7.152;2024-03-08T08:45:24;21.40;;;13.37;;
4290;SDS011;2159;50.906;7.152;2024-03-08T08:47:52;22.10;;;12.27;;
4290;SDS011;2159;50.906;7.152;2024-03-08T08:50:21;19.10;;;12.30;;
4290;SDS011;2159;50.906;7.152;2024-03-08T08:52:51;21.50;;;11.40;;
4290;SDS011;2159;50.906;7.152;2024-03-08T08:55:20;22.70;;;14.13;;
4290;SDS011;2159;50.906;7.152;2024-03-08T08:57:51;20.90;;;12.60;;
4290;SDS011;2159;50.906;7.152;2024-03-08T09:00:19;20.50;;;12.60;;
4290;SDS011;2159;50.906;7.152;2024-03-08T09:02:48;21.77;;;12.67;;
4290;SDS011;2159;50.906;7.152;2024-03-08T09:05:17;21.07;;;12.20;;
4290;SDS011;2159;50.906;7.152;2024-03-08T09:07:45;19.70;;;12.53;;
4290;SDS011;2159;50.906;7.152;2024-03-08T09:10:12;20.90;;;12.30;;
4290;SDS011;2159;50.906;7.152;2024-03-08T09:12:44;21.67;;;12.63;;
4290;SDS011;2159;50.906;7.152;2024-03-08T09:15:12;22.30;;;11.57;;
4290;SDS011;2159;50.906;7.152;2024-03-08T09:17:40;20.60;;;11.70;;
4290;SDS011;2159;50.906;7.152;2024-03-08T09:20:09;18.67;;;11.93;;
4290;SDS011;2159;50.906;7.152;2024-03-08T09:22:40;20.87;;;11.80;;
4290;SDS011;2159;50.906;7.152;2024-03-08T09:25:09;19.60;;;12.47;;
4290;SDS011;2159;50.906;7.152;2024-03-08T09:27:36;20.40;;;11.63;;
4290;SDS011;2159;50.906;7.152;2024-03-08T09:30:07;19.57;;;11.37;;
4290;SDS011;2159;50.906;7.152;2024-03-08T09:32:35;20.13;;;12.17;;
4290;SDS011;2159;50.906;7.152;2024-03-08T09:35:04;19.17;;;11.50;;
4290;SDS011;2159;50.906;7.152;2024-03-08T09:37:33;18.90;;;11.23;;
4290;SDS011;2159;50.906;7.152;2024-03-08T09:40:01;19.33;;;10.90;;
4290;SDS011;2159;50.906;7.152;2024-03-08T09:42:35;19.37;;;11.70;;
4290;SDS011;2159;50.906;7.152;2024-03-08T09:45:08;19.87;;;11.70;;
4290;SDS011;2159;50.906;7.152;2024-03-08T09:47:37;16.23;;;10.50;;
4290;SDS011;2159;50.906;7.152;2024-03-08T09:50:07;16.80;;;10.50;;
4290;SDS011;2159;50.906;7.152;2024-03-08T09:52:35;18.03;;;11.20;;
4290;SDS011;2159;50.906;7.152;2024-03-08T09:55:04;15.43;;;10.17;;
4290;SDS011;2159;50.906;7.152;2024-03-08T09:57:32;14.93;;;10.30;;
4290;SDS011;2159;50.906;7.152;2024-03-08T09:59:59;24.80;;;10.47;;
4290;SDS011;2159;50.906;7.152;2024-03-08T10:02:28;16.93;;;10.10;;
4290;SDS011;2159;50.906;7.152;2024-03-08T10:04:56;18.30;;;9.63;;
4290;SDS011;2159;50.906;7.152;2024-03-08T10:07:24;15.63;;;10.10;;
4290;SDS011;2159;50.906;7.152;2024-03-08T10:09:52;15.57;;;10.17;;
4290;SDS011;2159;50.906;7.152;2024-03-08T10:12:20;17.40;;;10.30;;
4290;SDS011;2159;50.906;7.152;2024-03-08T10:14:47;17.20;;;10.20;;
4290;SDS011;2159;50.906;7.152;2024-03-08T10:17:15;16.90;;;9.90;;
4290;SDS011;2159;50.906;7.152;2024-03-08T10:19:50;14.67;;;9.17;;
4290;SDS011;2159;50.906;7.152;2024-03-08T10:22:19;14.63;;;8.70;;
4290;SDS011;2159;50.906;7.152;2024-03-08T10:24:47;14.10;;;8.70;;
4290;SDS011;2159;50.906;7.152;2024-03-08T10:27:16;12.00;;;8.23;;
4290;SDS011;2159;50.906;7.152;2024-03-08T10:29:46;12.00;;;8.37;;
4290;SDS011;2159;50.906;7.152;2024-03-08T10:32:14;11.30;;;8.17;;
4290;SDS011;2159;50.906;7.152;2024-03-08T10:34:42;11.87;;;7.93;;
4290;SDS011;2159;50.906;7.152;2024-03-08T10:37:14;11.90;;;8.10;;
4290;SDS011;2159;50.906;7.152;2024-03-08T10:39:45;13.23;;;8.27;;
4290;SDS011;2159;50.906;7.152;2024-03-08T10:42:16;11.33;;;7.93;;
4290;SDS011;2159;50.906;7.152;2024-03-08T10:44:48;11.57;;;7.40;;
4290;SDS011;2159;50.906;7.152;2024-03-08T10:47:18;11.17;;;7.50;;
4290;SDS011;2159;50.906;7.152;2024-03-08T10:49:50;13.43;;;8.30;;
4290;SDS011;2159;50.906;7.152;2024-03-08T10:52:20;12.50;;;8.70;;
4290;SDS011;2159;50.906;7.152;2024-03-08T10:54:48;11.60;;;8.20;;
4290;SDS011;2159;50.906;7.152;2024-03-08T10:57:17;11.60;;;8.20;;
4290;SDS011;2159;50.906;7.152;2024-03-08T10:59:45;12.87;;;8.53;;
4290;SDS011;2159;50.906;7.152;2024-03-08T11:02:13;12.67;;;8.57;;
4290;SDS011;2159;50.906;7.152;2024-03-08T11:04:45;10.23;;;7.50;;
4290;SDS011;2159;50.906;7.152;2024-03-08T11:07:13;8.97;;;7.00;;
4290;SDS011;2159;50.906;7.152;2024-03-08T11:09:45;10.20;;;7.40;;
4290;SDS011;2159;50.906;7.152;2024-03-08T11:12:21;10.53;;;7.60;;
4290;SDS011;2159;50.906;7.152;2024-03-08T11:14:52;12.70;;;7.23;;
4290;SDS011;2159;50.906;7.152;2024-03-08T11:17:26;8.87;;;6.70;;
4290;SDS011;2159;50.906;7.152;2024-03-08T11:20:10;11.57;;;7.00;;
4290;SDS011;2159;50.906;7.152;2024-03-08T11:22:41;9.80;;;7.17;;
4290;SDS011;2159;50.906;7.152;2024-03-08T11:25:30;10.97;;;7.33;;
4290;SDS011;2159;50.906;7.152;2024-03-08T11:28:08;9.83;;;7.00;;
4290;SDS011;2159;50.906;7.152;2024-03-08T11:30:37;11.57;;;7.77;;
4290;SDS011;2159;50.906;7.152;2024-03-08T11:33:05;11.20;;;6.90;;
4290;SDS011;2159;50.906;7.152;2024-03-08T11:35:38;10.53;;;6.30;;
4290;SDS011;2159;50.906;7.152;2024-03-08T11:38:07;9.20;;;6.60;;
4290;SDS011;2159;50.906;7.152;2024-03-08T11:40:36;9.60;;;6.90;;
4290;SDS011;2159;50.906;7.152;2024-03-08T11:43:06;8.83;;;7.07;;
4290;SDS011;2159;50.906;7.152;2024-03-08T11:45:34;9.13;;;7.10;;
4290;SDS011;2159;50.906;7.152;2024-03-08T11:48:03;10.43;;;7.10;;
4290;SDS011;2159;50.906;7.152;2024-03-08T11:50:32;8.70;;;7.00;;
4290;SDS011;2159;50.906;7.152;2024-03-08T11:53:00;8.87;;;6.63;;
4290;SDS011;2159;50.906;7.152;2024-03-08T11:55:28;9.17;;;6.97;;
4290;SDS011;2159;50.906;7.152;2024-03-08T11:58:01;9.83;;;6.80;;
4290;SDS011;2159;50.906;7.152;2024-03-08T12:00:29;11.17;;;6.60;;
4290;SDS011;2159;50.906;7.152;2024-03-08T12:03:01;9.90;;;6.80;;
4290;SDS011;2159;50.906;7.152;2024-03-08T12:05:29;8.57;;;6.23;;
4290;SDS011;2159;50.906;7.152;2024-03-08T12:07:57;10.60;;;6.83;;
4290;SDS011;2159;50.906;7.152;2024-03-08T12:10:25;9.07;;;7.13;;
4290;SDS011;2159;50.906;7.152;2024-03-08T12:12:55;8.70;;;6.70;;
4290;SDS011;2159;50.906;7.152;2024-03-08T12:15:27;12.53;;;7.23;;
4290;SDS011;2159;50.906;7.152;2024-03-08T12:17:55;9.90;;;6.40;;
4290;SDS011;2159;50.906;7.152;2024-03-08T12:20:24;7.80;;;6.13;;
4290;SDS011;2159;50.906;7.152;2024-03-08T12:22:52;10.10;;;6.60;;
4290;SDS011;2159;50.906;7.152;2024-03-08T12:25:25;9.27;;;7.43;;
4290;SDS011;2159;50.906;7.152;2024-03-08T12:27:53;9.17;;;6.90;;
4290;SDS011;2159;50.906;7.152;2024-03-08T12:30:23;9.00;;;6.60;;
4290;SDS011;2159;50.906;7.152;2024-03-08T12:32:55;9.77;;;6.63;;
4290;SDS011;2159;50.906;7.152;2024-03-08T12:35:25;9.63;;;7.10;;
4290;SDS011;2159;50.906;7.152;2024-03-08T12:37:53;8.23;;;6.77;;
4290;SDS011;2159;50.906;7.152;2024-03-08T12:40:25;9.37;;;6.70;;
4290;SDS011;2159;50.906;7.152;2024-03-08T12:42:54;8.90;;;6.27;;
4290;SDS011;2159;50.906;7.152;2024-03-08T12:45:22;8.83;;;7.07;;
4290;SDS011;2159;50.906;7.152;2024-03-08T12:47:50;8.17;;;6.23;;
4290;SDS011;2159;50.906;7.152;2024-03-08T12:50:21;10.60;;;6.97;;
4290;SDS011;2159;50.906;7.152;2024-03-08T12:52:48;10.03;;;6.57;;
4290;SDS011;2159;50.906;7.152;2024-03-08T12:55:19;7.80;;;6.17;;
4290;SDS011;2159;50.906;7.152;2024-03-08T12:57:46;9.23;;;6.97;;
4290;SDS011;2159;50.906;7.152;2024-03-08T13:00:15;9.63;;;6.90;;
4290;SDS011;2159;50.906;7.152;2024-03-08T13:02:46;8.80;;;6.53;;
4290;SDS011;2159;50.906;7.152;2024-03-08T13:05:13;10.50;;;6.40;;
4290;SDS011;2159;50.906;7.152;2024-03-08T13:07:43;8.20;;;6.43;;
4290;SDS011;2159;50.906;7.152;2024-03-08T13:10:12;7.70;;;5.90;;
4290;SDS011;2159;50.906;7.152;2024-03-08T13:12:42;7.90;;;6.17;;
4290;SDS011;2159;50.906;7.152;2024-03-08T13:15:09;11.13;;;6.60;;
4290;SDS011;2159;50.906;7.152;2024-03-08T13:17:41;8.00;;;6.50;;
4290;SDS011;2159;50.906;7.152;2024-03-08T13:20:11;8.00;;;6.20;;
4290;SDS011;2159;50.906;7.152;2024-03-08T13:22:48;7.67;;;6.10;;
4290;SDS011;2159;50.906;7.152;2024-03-08T13:25:16;7.80;;;6.40;;
4290;SDS011;2159;50.906;7.152;2024-03-08T13:27:44;8.40;;;6.90;;
4290;SDS011;2159;50.906;7.152;2024-03-08T13:30:12;7.47;;;6.37;;
4290;SDS011;2159;50.906;7.152;2024-03-08T13:32:41;7.60;;;6.20;;
4290;SDS011;2159;50.906;7.152;2024-03-08T13:35:10;9.73;;;6.70;;
4290;SDS011;2159;50.906;7.152;2024-03-08T13:37:39;11.20;;;7.10;;
4290;SDS011;2159;50.906;7.152;2024-03-08T13:40:09;9.30;;;6.70;;
4290;SDS011;2159;50.906;7.152;2024-03-08T13:42:39;7.80;;;6.13;;
4290;SDS011;2159;50.906;7.152;2024-03-08T13:45:07;9.20;;;6.83;;
4290;SDS011;2159;50.906;7.152;2024-03-08T13:47:37;8.70;;;6.60;;
4290;SDS011;2159;50.906;7.152;2024-03-08T13:50:05;9.70;;;6.40;;
4290;SDS011;2159;50.906;7.152;2024-03-08T13:52:34;8.20;;;7.10;;
4290;SDS011;2159;50.906;7.152;2024-03-08T13:55:02;9.77;;;6.57;;
4290;SDS011;2159;50.906;7.152;2024-03-08T13:57:32;9.03;;;7.23;;
4290;SDS011;2159;50.906;7.152;2024-03-08T13:59:59;10.30;;;7.20;;
4290;SDS011;2159;50.906;7.152;2024-03-08T14:02:27;12.30;;;7.40;;
4290;SDS011;2159;50.906;7.152;2024-03-08T14:04:56;11.83;;;7.10;;
4290;SDS011;2159;50.906;7.152;2024-03-08T14:07:28;10.50;;;7.07;;
4290;SDS011;2159;50.906;7.152;2024-03-08T14:09:56;14.00;;;7.40;;
4290;SDS011;2159;50.906;7.152;2024-03-08T14:12:23;9.03;;;6.73;;
4290;SDS011;2159;50.906;7.152;2024-03-08T14:14:56;9.17;;;7.40;;
4290;SDS011;2159;50.906;7.152;2024-03-08T14:17:25;11.53;;;7.60;;
4290;SDS011;2159;50.906;7.152;2024-03-08T14:19:53;9.90;;;6.87;;
4290;SDS011;2159;50.906;7.152;2024-03-08T14:22:21;9.70;;;6.90;;
4290;SDS011;2159;50.906;7.152;2024-03-08T14:24:49;10.70;;;7.97;;
4290;SDS011;2159;50.906;7.152;2024-03-08T14:27:18;9.10;;;6.70;;
4290;SDS011;2159;50.906;7.152;2024-03-08T14:29:45;11.20;;;7.97;;
4290;SDS011;2159;50.906;7.152;2024-03-08T14:32:14;9.70;;;7.03;;
4290;SDS011;2159;50.906;7.152;2024-03-08T14:34:42;11.70;;;8.23;;
4290;SDS011;2159;50.906;7.152;2024-03-08T14:37:10;10.70;;;7.20;;
4290;SDS011;2159;50.906;7.152;2024-03-08T14:39:38;8.40;;;6.63;;
4290;SDS011;2159;50.906;7.152;2024-03-08T14:42:05;11.83;;;8.07;;
4290;SDS011;2159;50.906;7.152;2024-03-08T14:44:34;10.23;;;7.70;;
4290;SDS011;2159;50.906;7.152;2024-03-08T14:47:03;11.87;;;8.70;;
4290;SDS011;2159;50.906;7.152;2024-03-08T14:49:33;15.17;;;8.40;;
4290;SDS011;2159;50.906;7.152;2024-03-08T14:52:02;11.17;;;7.93;;
4290;SDS011;2159;50.906;7.152;2024-03-08T14:54:50;10.43;;;7.60;;
4290;SDS011;2159;50.906;7.152;2024-03-08T14:57:17;11.60;;;8.07;;
4290;SDS011;2159;50.906;7.152;2024-03-08T14:59:45;9.43;;;7.10;;
4290;SDS011;2159;50.906;7.152;2024-03-08T15:02:12;11.73;;;7.23;;
4290;SDS011;2159;50.906;7.152;2024-03-08T15:04:42;11.80;;;7.67;;